createdAt,value
2023-04-15T00:00:17.740Z,7.03
2023-04-15T00:01:20.850Z,7.07
2023-04-15T00:02:22.992Z,6.97
2023-04-15T00:03:25.344Z,6.83
2023-04-15T00:04:28.357Z,6.90
2023-04-15T00:05:31.100Z,7.01
2023-04-15T00:06:33.295Z,7.10
2023-04-15T00:07:35.982Z,6.87
2023-04-15T00:08:37.862Z,6.97
2023-04-15T00:09:39.706Z,7.06
2023-04-15T00:10:44.191Z,7.05
2023-04-15T00:11:46.455Z,6.90
2023-04-15T00:12:48.320Z,6.97
2023-04-15T00:13:50.261Z,6.93
2023-04-15T00:14:52.247Z,6.88
2023-04-15T00:15:54.118Z,6.87
2023-04-15T00:16:57.399Z,6.98
2023-04-15T00:17:59.337Z,7.07
2023-04-15T00:19:01.525Z,7.09
2023-04-15T00:20:06.370Z,7.05
2023-04-15T00:21:09.019Z,7.18
2023-04-15T00:22:11.435Z,7.23
2023-04-15T00:23:13.676Z,7.18
2023-04-15T00:24:15.681Z,7.25
2023-04-15T00:25:18.049Z,7.27
2023-04-15T00:26:20.774Z,7.49
2023-04-15T00:27:23.890Z,7.36
2023-04-15T00:28:26.304Z,7.36
2023-04-15T00:29:28.484Z,7.27
2023-04-15T00:30:30.434Z,7.28
2023-04-15T00:31:32.953Z,7.58
2023-04-15T00:32:35.586Z,7.47
2023-04-15T00:33:37.523Z,7.34
2023-04-15T00:34:39.513Z,7.35
2023-04-15T00:35:43.067Z,7.46
2023-04-15T00:36:44.988Z,7.28
2023-04-15T00:37:47.195Z,7.17
2023-04-15T00:38:49.341Z,7.18
2023-04-15T00:39:51.747Z,7.27
2023-04-15T00:40:53.914Z,7.40
2023-04-15T00:41:55.985Z,7.26
2023-04-15T00:42:58.171Z,7.44
2023-04-15T00:44:02.343Z,7.26
2023-04-15T00:45:05.497Z,7.46
2023-04-15T00:46:07.929Z,7.48
2023-04-15T00:47:10.506Z,7.45
2023-04-15T00:48:13.127Z,7.44
2023-04-15T00:49:16.075Z,7.40
2023-04-15T00:50:17.939Z,7.41
2023-04-15T00:51:20.170Z,7.43
2023-04-15T00:52:22.661Z,7.34
2023-04-15T00:53:26.060Z,7.43
2023-04-15T00:54:27.924Z,7.52
2023-04-15T00:55:30.067Z,7.50
2023-04-15T00:56:36.044Z,7.51
2023-04-15T00:57:39.299Z,7.51
2023-04-15T00:58:42.171Z,7.59
2023-04-15T00:59:44.113Z,7.53
2023-04-15T01:00:46.770Z,7.65
2023-04-15T01:01:48.893Z,7.52
2023-04-15T01:02:50.979Z,7.59
2023-04-15T01:03:54.010Z,7.56
2023-04-15T01:04:56.767Z,7.52
2023-04-15T01:06:00.848Z,7.53
2023-04-15T01:07:04.339Z,7.53
2023-04-15T01:08:06.616Z,7.45
2023-04-15T01:09:08.776Z,7.58
2023-04-15T01:10:10.847Z,7.65
2023-04-15T01:11:13.853Z,7.63
2023-04-15T01:12:17.384Z,7.42
2023-04-15T01:13:19.950Z,7.49
2023-04-15T01:14:22.158Z,7.51
2023-04-15T01:15:25.006Z,7.48
2023-04-15T01:16:28.773Z,7.55
2023-04-15T01:17:30.851Z,7.56
2023-04-15T01:18:33.924Z,7.71
2023-04-15T01:19:39.872Z,7.61
2023-04-15T01:20:41.857Z,7.51
2023-04-15T01:21:43.842Z,7.50
2023-04-15T01:22:45.771Z,7.53
2023-04-15T01:23:48.957Z,7.55
2023-04-15T01:24:59.957Z,7.51
2023-04-15T01:26:02.601Z,7.54
2023-04-15T01:27:05.602Z,7.68
2023-04-15T01:28:09.540Z,7.61
2023-04-15T01:29:11.931Z,7.56
2023-04-15T01:30:14.140Z,7.49
2023-04-15T01:31:16.539Z,7.51
2023-04-15T01:32:18.756Z,7.45
2023-04-15T01:33:20.584Z,7.38
2023-04-15T01:34:22.747Z,7.29
2023-04-15T01:35:28.631Z,7.40
2023-04-15T01:36:30.706Z,7.33
2023-04-15T01:37:33.150Z,7.30
2023-04-15T01:38:35.068Z,7.32
2023-04-15T01:39:36.918Z,7.29
2023-04-15T01:40:39.493Z,7.36
2023-04-15T01:41:42.404Z,7.20
2023-04-15T01:42:44.605Z,7.12
2023-04-15T01:43:46.741Z,7.27
2023-04-15T01:44:48.633Z,7.31
2023-04-15T01:45:51.227Z,7.32
2023-04-15T01:46:53.321Z,7.29
2023-04-15T01:47:55.500Z,7.18
2023-04-15T01:48:57.651Z,7.23
2023-04-15T01:50:00.215Z,7.26
2023-04-15T01:51:03.973Z,7.30
2023-04-15T01:52:06.000Z,7.40
2023-04-15T01:53:08.684Z,7.35
2023-04-15T01:54:10.547Z,7.34
2023-04-15T01:55:13.311Z,7.36
2023-04-15T01:56:16.971Z,7.31
2023-04-15T01:57:18.982Z,7.26
2023-04-15T01:58:22.026Z,7.34
2023-04-15T01:59:24.357Z,7.37
2023-04-15T02:00:26.680Z,7.45
2023-04-15T02:01:28.876Z,7.27
2023-04-15T02:02:34.644Z,7.29
2023-04-15T02:03:38.881Z,7.36
2023-04-15T02:04:40.840Z,7.54
2023-04-15T02:05:42.771Z,7.56
2023-04-15T02:06:46.369Z,7.46
2023-04-15T02:07:49.535Z,7.43
2023-04-15T02:08:51.454Z,7.36
2023-04-15T02:09:53.355Z,7.40
2023-04-15T02:10:55.342Z,7.52
2023-04-15T02:11:57.741Z,7.48
2023-04-15T02:12:59.609Z,7.40
2023-04-15T02:14:07.097Z,7.44
2023-04-15T02:15:10.384Z,7.43
2023-04-15T02:16:19.616Z,7.47
2023-04-15T02:17:21.698Z,7.47
2023-04-15T02:18:23.683Z,7.31
2023-04-15T02:19:26.108Z,7.38
2023-04-15T02:20:28.307Z,7.34
2023-04-15T02:21:33.153Z,7.43
2023-04-15T02:22:35.257Z,7.51
2023-04-15T02:23:37.166Z,7.51
2023-04-15T02:24:39.422Z,7.47
2023-04-15T02:25:41.524Z,7.29
2023-04-15T02:26:43.526Z,7.32
2023-04-15T02:27:45.721Z,7.36
2023-04-15T02:28:47.624Z,7.37
2023-04-15T02:29:52.831Z,7.45
2023-04-15T02:30:57.614Z,7.47
2023-04-15T02:31:59.524Z,7.41
2023-04-15T02:33:02.606Z,7.48
2023-04-15T02:34:04.744Z,7.58
2023-04-15T02:35:09.008Z,7.50
2023-04-15T02:36:12.519Z,7.50
2023-04-15T02:37:14.513Z,7.41
2023-04-15T02:38:17.964Z,7.26
2023-04-15T02:39:20.143Z,7.33
2023-04-15T02:40:22.822Z,7.49
2023-04-15T02:41:27.777Z,7.34
2023-04-15T02:42:30.452Z,7.50
2023-04-15T02:43:33.648Z,7.61
2023-04-15T02:44:36.559Z,7.46
2023-04-15T02:45:39.079Z,7.52
2023-04-15T02:46:41.349Z,7.58
2023-04-15T02:47:44.020Z,7.51
2023-04-15T02:48:46.002Z,7.59
2023-04-15T02:49:47.873Z,7.46
2023-04-15T02:50:50.085Z,7.30
2023-04-15T02:51:52.254Z,7.43
2023-04-15T02:52:54.348Z,7.52
2023-04-15T02:53:56.665Z,7.41
2023-04-15T02:55:00.796Z,7.54
2023-04-15T02:56:03.538Z,7.48
2023-04-15T02:57:06.871Z,7.40
2023-04-15T02:58:09.039Z,7.41
2023-04-15T02:59:12.388Z,7.47
2023-04-15T03:00:14.460Z,7.35
2023-04-15T03:01:16.932Z,7.41
2023-04-15T03:02:19.017Z,7.54
2023-04-15T03:03:21.126Z,7.39
2023-04-15T03:04:23.180Z,7.39
2023-04-15T03:05:25.495Z,7.52
2023-04-15T03:06:27.717Z,7.59
2023-04-15T03:07:29.868Z,7.65
2023-04-15T03:08:31.957Z,7.48
2023-04-15T03:09:33.807Z,7.57
2023-04-15T03:10:36.259Z,7.63
2023-04-15T03:11:40.774Z,7.67
2023-04-15T03:12:42.982Z,7.55
2023-04-15T03:13:45.123Z,7.65
2023-04-15T03:14:48.756Z,7.55
2023-04-15T03:15:50.861Z,7.46
2023-04-15T03:16:53.166Z,7.48
2023-04-15T03:17:55.146Z,7.48
2023-04-15T03:18:57.052Z,7.40
2023-04-15T03:19:59.393Z,7.49
2023-04-15T03:21:02.874Z,7.50
2023-04-15T03:22:05.644Z,7.46
2023-04-15T03:23:07.559Z,7.46
2023-04-15T03:24:09.554Z,7.58
2023-04-15T03:25:11.563Z,7.62
2023-04-15T03:26:30.104Z,7.76
2023-04-15T03:27:32.702Z,7.80
2023-04-15T03:28:35.024Z,7.89
2023-04-15T03:29:37.294Z,7.79
2023-04-15T03:30:39.267Z,7.79
2023-04-15T03:31:41.967Z,7.88
2023-04-15T03:32:44.143Z,7.78
2023-04-15T03:33:46.157Z,7.84
2023-04-15T03:34:48.354Z,7.83
2023-04-15T03:35:52.088Z,7.70
2023-04-15T03:36:54.048Z,7.62
2023-04-15T03:37:56.254Z,7.75
2023-04-15T03:38:58.645Z,7.71
2023-04-15T03:40:00.675Z,7.70
2023-04-15T03:41:02.543Z,7.70
2023-04-15T03:42:04.412Z,7.69
2023-04-15T03:43:06.704Z,7.97
2023-04-15T03:44:08.555Z,7.85
2023-04-15T03:45:10.917Z,7.77
2023-04-15T03:46:12.849Z,7.73
2023-04-15T03:47:14.756Z,7.82
2023-04-15T03:48:18.260Z,7.75
2023-04-15T03:49:22.981Z,7.72
2023-04-15T03:50:25.046Z,7.83
2023-04-15T03:51:26.935Z,7.91
2023-04-15T03:52:28.838Z,7.96
2023-04-15T03:53:31.017Z,8.07
2023-04-15T03:54:32.848Z,8.04
2023-04-15T03:55:34.677Z,8.04
2023-04-15T03:56:36.546Z,8.07
2023-04-15T03:57:39.392Z,8.06
2023-04-15T03:58:41.713Z,7.97
2023-04-15T03:59:43.905Z,7.79
2023-04-15T04:00:45.978Z,7.72
2023-04-15T04:01:48.378Z,7.64
2023-04-15T04:02:50.485Z,7.84
2023-04-15T04:03:52.750Z,8.01
2023-04-15T04:04:54.820Z,7.97
2023-04-15T04:05:56.744Z,7.85
2023-04-15T04:06:58.876Z,7.84
2023-04-15T04:08:00.699Z,7.96
2023-04-15T04:09:02.742Z,7.92
2023-04-15T04:10:05.186Z,7.87
2023-04-15T04:11:06.993Z,7.91
2023-04-15T04:12:09.200Z,7.84
2023-04-15T04:13:11.183Z,7.82
2023-04-15T04:14:13.112Z,7.92
2023-04-15T04:15:15.002Z,7.79
2023-04-15T04:16:17.313Z,7.74
2023-04-15T04:17:19.745Z,7.67
2023-04-15T04:18:22.468Z,7.69
2023-04-15T04:19:24.343Z,7.83
2023-04-15T04:20:26.253Z,8.10
2023-04-15T04:21:28.204Z,7.93
2023-04-15T04:22:30.648Z,7.84
2023-04-15T04:23:33.173Z,7.78
2023-04-15T04:24:35.028Z,7.82
2023-04-15T04:25:36.971Z,7.85
2023-04-15T04:26:38.822Z,7.80
2023-04-15T04:27:41.143Z,7.87
2023-04-15T04:28:43.007Z,7.96
2023-04-15T04:29:47.558Z,7.81
2023-04-15T04:30:49.534Z,7.86
2023-04-15T04:31:51.698Z,7.79
2023-04-15T04:32:53.993Z,7.93
2023-04-15T04:33:55.870Z,8.05
2023-04-15T04:34:57.723Z,8.02
2023-04-15T04:35:59.564Z,8.01
2023-04-15T04:37:01.488Z,8.02
2023-04-15T04:38:04.465Z,8.03
2023-04-15T04:39:06.335Z,7.98
2023-04-15T04:40:09.503Z,7.92
2023-04-15T04:41:11.405Z,8.07
2023-04-15T04:42:13.266Z,7.98
2023-04-15T04:43:16.139Z,8.18
2023-04-15T04:44:18.287Z,8.28
2023-04-15T04:45:20.526Z,8.27
2023-04-15T04:46:23.817Z,8.16
2023-04-15T04:47:25.850Z,8.18
2023-04-15T04:48:28.052Z,8.22
2023-04-15T04:49:29.914Z,8.35
2023-04-15T04:50:32.381Z,8.32
2023-04-15T04:51:34.405Z,8.44
2023-04-15T04:52:36.777Z,8.37
2023-04-15T04:53:39.007Z,8.38
2023-04-15T04:54:41.096Z,8.61
2023-04-15T04:55:42.986Z,8.53
2023-04-15T04:56:44.848Z,8.43
2023-04-15T04:57:47.397Z,8.52
2023-04-15T04:58:49.534Z,8.42
2023-04-15T04:59:51.376Z,8.36
2023-04-15T05:00:53.302Z,8.32
2023-04-15T05:01:55.540Z,8.45
2023-04-15T05:02:57.634Z,8.32
2023-04-15T05:04:00.496Z,8.19
2023-04-15T05:05:02.722Z,8.27
2023-04-15T05:06:06.585Z,8.15
2023-04-15T05:07:08.606Z,8.28
2023-04-15T05:08:10.461Z,8.29
2023-04-15T05:09:12.629Z,8.29
2023-04-15T05:10:15.351Z,8.39
2023-04-15T05:11:17.235Z,8.29
2023-04-15T05:12:19.136Z,8.18
2023-04-15T05:13:21.670Z,8.07
2023-04-15T05:14:23.899Z,8.31
2023-04-15T05:15:25.823Z,8.40
2023-04-15T05:16:27.869Z,8.23
2023-04-15T05:17:31.990Z,8.31
2023-04-15T05:18:34.486Z,8.30
2023-04-15T05:19:36.767Z,8.29
2023-04-15T05:20:38.702Z,8.30
2023-04-15T05:21:40.892Z,8.34
2023-04-15T05:22:42.845Z,8.42
2023-04-15T05:23:44.754Z,8.49
2023-04-15T05:24:46.994Z,8.42
2023-04-15T05:25:48.995Z,8.56
2023-04-15T05:26:51.156Z,8.71
2023-04-15T05:27:53.007Z,8.67
2023-04-15T05:28:55.096Z,8.58
2023-04-15T05:29:57.370Z,8.62
2023-04-15T05:30:59.298Z,8.53
2023-04-15T05:32:01.227Z,8.48
2023-04-15T05:33:03.828Z,8.50
2023-04-15T05:34:07.181Z,8.52
2023-04-15T05:35:09.496Z,8.77
2023-04-15T05:36:12.122Z,8.80
2023-04-15T05:37:14.199Z,8.68
2023-04-15T05:38:16.221Z,8.52
2023-04-15T05:39:18.214Z,8.30
2023-04-15T05:40:20.778Z,8.33
2023-04-15T05:41:22.664Z,8.22
2023-04-15T05:42:24.513Z,8.19
2023-04-15T05:43:26.516Z,8.32
2023-04-15T05:44:28.414Z,8.35
2023-04-15T05:45:30.585Z,8.19
2023-04-15T05:46:32.488Z,7.98
2023-04-15T05:47:35.045Z,8.13
2023-04-15T05:48:37.152Z,8.33
2023-04-15T05:49:39.011Z,8.28
2023-04-15T05:50:42.344Z,8.23
2023-04-15T05:51:44.221Z,8.09
2023-04-15T05:52:46.324Z,8.15
2023-04-15T05:53:48.229Z,8.20
2023-04-15T05:54:50.642Z,8.47
2023-04-15T05:55:52.873Z,8.54
2023-04-15T05:56:54.908Z,8.62
2023-04-15T05:57:57.230Z,8.66
2023-04-15T05:58:59.237Z,8.74
2023-04-15T06:00:01.569Z,8.86
2023-04-15T06:01:11.757Z,8.95
2023-04-15T06:02:14.261Z,8.98
2023-04-15T06:03:16.405Z,8.99
2023-04-15T06:04:18.369Z,8.85
2023-04-15T06:05:20.291Z,8.94
2023-04-15T06:06:22.360Z,9.14
2023-04-15T06:07:24.838Z,9.13
2023-04-15T06:08:27.852Z,9.29
2023-04-15T06:09:29.705Z,9.35
2023-04-15T06:10:36.375Z,9.47
2023-04-15T06:11:38.335Z,9.41
2023-04-15T06:12:40.520Z,9.58
2023-04-15T06:13:42.550Z,9.62
2023-04-15T06:14:44.498Z,9.42
2023-04-15T06:15:46.425Z,9.40
2023-04-15T06:16:48.259Z,9.78
2023-04-15T06:17:50.513Z,9.87
2023-04-15T06:18:52.408Z,9.73
2023-04-15T06:19:55.858Z,9.51
2023-04-15T06:20:57.961Z,9.40
2023-04-15T06:21:59.918Z,9.27
2023-04-15T06:23:02.062Z,9.17
2023-04-15T06:24:04.108Z,9.01
2023-04-15T06:25:08.299Z,9.12
2023-04-15T06:26:10.257Z,9.22
2023-04-15T06:27:12.156Z,9.43
2023-04-15T06:28:14.364Z,9.10
2023-04-15T06:29:16.316Z,9.05
2023-04-15T06:30:18.207Z,8.95
2023-04-15T06:31:20.186Z,8.95
2023-04-15T06:32:22.090Z,8.91
2023-04-15T06:33:24.331Z,9.08
2023-04-15T06:34:26.335Z,9.20
2023-04-15T06:35:28.642Z,9.27
2023-04-15T06:36:30.543Z,9.26
2023-04-15T06:37:32.713Z,9.25
2023-04-15T06:38:34.847Z,9.05
2023-04-15T06:39:37.244Z,8.89
2023-04-15T06:40:39.167Z,8.84
2023-04-15T06:41:41.152Z,9.24
2023-04-15T06:42:43.047Z,9.39
2023-04-15T06:43:45.256Z,9.32
2023-04-15T06:44:47.104Z,9.30
2023-04-15T06:45:48.981Z,9.44
2023-04-15T06:46:51.004Z,9.66
2023-04-15T06:47:52.940Z,9.70
2023-04-15T06:48:55.156Z,9.78
2023-04-15T06:49:57.028Z,9.74
2023-04-15T06:50:58.886Z,9.31
2023-04-15T06:52:01.619Z,9.31
2023-04-15T06:53:03.657Z,9.32
2023-04-15T06:54:06.349Z,9.75
2023-04-15T06:55:08.767Z,9.85
2023-04-15T06:56:10.963Z,10.14
2023-04-15T06:57:13.033Z,10.67
2023-04-15T06:58:14.914Z,10.96
2023-04-15T06:59:17.215Z,11.04
2023-04-15T07:00:19.652Z,11.00
2023-04-15T07:01:22.559Z,11.24
2023-04-15T07:02:24.703Z,11.43
2023-04-15T07:03:27.117Z,10.54
2023-04-15T07:04:29.417Z,10.42
2023-04-15T07:05:32.510Z,10.31
2023-04-15T07:06:35.566Z,10.00
2023-04-15T07:07:38.400Z,10.36
2023-04-15T07:08:40.470Z,10.52
2023-04-15T07:09:42.849Z,10.80
2023-04-15T07:10:44.844Z,10.65
2023-04-15T07:11:46.741Z,10.86
2023-04-15T07:12:49.210Z,11.30
2023-04-15T07:13:51.122Z,11.54
2023-04-15T07:14:53.339Z,11.86
2023-04-15T07:15:55.317Z,12.01
2023-04-15T07:16:57.734Z,12.10
2023-04-15T07:17:59.701Z,12.02
2023-04-15T07:19:01.754Z,12.13
2023-04-15T07:20:05.026Z,12.24
2023-04-15T07:21:06.955Z,12.06
2023-04-15T07:22:09.165Z,11.96
2023-04-15T07:23:11.108Z,11.91
2023-04-15T07:24:13.113Z,12.28
2023-04-15T07:25:15.379Z,12.07
2023-04-15T07:26:17.267Z,12.07
2023-04-15T07:27:19.128Z,11.97
2023-04-15T07:28:21.273Z,11.60
2023-04-15T07:29:23.195Z,11.62
2023-04-15T07:30:25.436Z,11.66
2023-04-15T07:31:27.508Z,11.67
2023-04-15T07:32:29.529Z,11.36
2023-04-15T07:33:31.548Z,11.68
2023-04-15T07:34:33.525Z,11.75
2023-04-15T07:35:35.839Z,12.18
2023-04-15T07:36:37.807Z,12.10
2023-04-15T07:37:39.792Z,12.06
2023-04-15T07:38:42.585Z,12.25
2023-04-15T07:39:44.470Z,12.26
2023-04-15T07:40:47.032Z,12.22
2023-04-15T07:41:49.330Z,12.47
2023-04-15T07:42:51.472Z,12.51
2023-04-15T07:43:53.395Z,12.61
2023-04-15T07:44:55.397Z,12.39
2023-04-15T07:45:57.707Z,13.14
2023-04-15T07:46:59.654Z,13.93
2023-04-15T07:48:02.554Z,13.57
2023-04-15T07:49:04.626Z,13.97
2023-04-15T07:50:06.935Z,13.88
2023-04-15T07:51:10.840Z,13.75
2023-04-15T07:52:12.689Z,13.23
2023-04-15T07:53:14.695Z,12.78
2023-04-15T07:54:16.863Z,12.73
2023-04-15T07:55:21.511Z,12.26
2023-04-15T07:56:23.754Z,11.79
2023-04-15T07:57:25.605Z,11.42
2023-04-15T07:58:27.503Z,11.75
2023-04-15T07:59:31.180Z,12.19
2023-04-15T08:00:33.334Z,13.32
2023-04-15T08:01:35.803Z,13.74
2023-04-15T08:02:39.048Z,13.72
2023-04-15T08:03:43.209Z,13.21
2023-04-15T08:04:45.364Z,12.62
2023-04-15T08:05:47.507Z,12.67
2023-04-15T08:06:50.438Z,12.30
2023-04-15T08:07:52.345Z,12.10
2023-04-15T08:08:57.320Z,11.90
2023-04-15T08:09:59.236Z,12.15
2023-04-15T08:11:01.232Z,12.37
2023-04-15T08:12:03.854Z,12.38
2023-04-15T08:13:06.053Z,12.20
2023-04-15T08:14:08.135Z,12.28
2023-04-15T08:15:10.399Z,11.96
2023-04-15T08:16:16.870Z,12.29
2023-04-15T08:17:19.107Z,12.35
2023-04-15T08:18:21.298Z,12.86
2023-04-15T08:19:24.290Z,13.18
2023-04-15T08:20:26.248Z,12.90
2023-04-15T08:21:30.829Z,13.38
2023-04-15T08:22:33.129Z,14.15
2023-04-15T08:23:34.961Z,14.49
2023-04-15T08:24:37.666Z,14.48
2023-04-15T08:25:41.380Z,14.55
2023-04-15T08:26:43.293Z,14.71
2023-04-15T08:27:46.206Z,14.76
2023-04-15T08:28:48.729Z,14.80
2023-04-15T08:29:50.683Z,14.62
2023-04-15T08:30:55.533Z,14.09
2023-04-15T08:31:57.847Z,13.94
2023-04-15T08:33:00.898Z,13.61
2023-04-15T08:34:03.600Z,13.45
2023-04-15T08:35:06.464Z,13.79
2023-04-15T08:36:09.131Z,13.79
2023-04-15T08:37:12.208Z,13.59
2023-04-15T08:38:15.156Z,13.67
2023-04-15T08:39:17.778Z,13.89
2023-04-15T08:40:21.153Z,13.83
2023-04-15T08:41:25.413Z,14.00
2023-04-15T08:42:49.003Z,13.94
2023-04-15T08:43:56.835Z,14.36
2023-04-15T08:45:01.757Z,13.49
2023-04-15T08:46:05.629Z,13.76
2023-04-15T08:47:09.078Z,13.98
2023-04-15T08:48:16.598Z,14.39
2023-04-15T08:49:20.823Z,14.89
2023-04-15T08:50:23.746Z,15.34
2023-04-15T08:51:26.579Z,15.21
2023-04-15T08:52:30.577Z,15.39
2023-04-15T08:53:32.693Z,15.00
2023-04-15T08:54:36.363Z,14.97
2023-04-15T08:55:47.373Z,15.03
2023-04-15T08:56:50.338Z,15.08
2023-04-15T08:57:52.257Z,14.85
2023-04-15T08:58:54.537Z,14.92
2023-04-15T08:59:57.703Z,14.77
2023-04-15T09:00:59.872Z,14.53
2023-04-15T09:02:02.827Z,14.11
2023-04-15T09:03:09.065Z,14.38
2023-04-15T09:04:12.585Z,14.53
2023-04-15T09:05:14.977Z,14.64
2023-04-15T09:06:17.930Z,14.26
2023-04-15T09:07:19.915Z,14.03
2023-04-15T09:08:22.235Z,13.95
2023-04-15T09:09:24.146Z,13.58
2023-04-15T09:10:26.502Z,13.69
2023-04-15T09:11:31.425Z,13.48
2023-04-15T09:12:36.214Z,13.46
2023-04-15T09:13:38.287Z,13.64
2023-04-15T09:14:42.583Z,13.57
2023-04-15T09:15:44.795Z,13.50
2023-04-15T09:16:59.144Z,13.33
2023-04-15T09:18:01.311Z,13.43
2023-04-15T09:19:21.712Z,13.15
2023-04-15T09:20:24.112Z,13.08
2023-04-15T09:21:26.476Z,12.85
2023-04-15T09:22:32.668Z,12.59
2023-04-15T09:23:36.282Z,12.43
2023-04-15T09:24:41.014Z,12.43
2023-04-15T09:25:43.190Z,12.75
2023-04-15T09:26:45.518Z,12.73
2023-04-15T09:27:51.789Z,12.59
2023-04-15T09:28:53.651Z,12.78
2023-04-15T09:29:55.667Z,13.11
2023-04-15T09:30:58.880Z,12.75
2023-04-15T09:32:14.093Z,12.53
2023-04-15T09:33:15.953Z,12.90
2023-04-15T09:34:18.002Z,13.40
2023-04-15T09:35:24.444Z,13.67
2023-04-15T09:36:29.737Z,14.01
2023-04-15T09:37:36.587Z,14.19
2023-04-15T09:38:56.231Z,14.17
2023-04-15T09:39:58.086Z,14.40
2023-04-15T09:41:00.298Z,14.44
2023-04-15T09:42:07.153Z,14.54
2023-04-15T09:43:13.025Z,14.58
2023-04-15T09:44:27.230Z,14.70
2023-04-15T09:45:29.967Z,14.73
2023-04-15T09:46:45.402Z,14.19
2023-04-15T09:47:47.315Z,14.06
2023-04-15T09:49:08.849Z,13.92
2023-04-15T09:50:10.877Z,13.96
2023-04-15T09:51:12.864Z,14.03
2023-04-15T09:52:14.811Z,13.76
2023-04-15T09:53:19.346Z,13.47
2023-04-15T09:54:21.579Z,13.68
2023-04-15T09:55:23.603Z,13.52
2023-04-15T09:56:34.796Z,13.57
2023-04-15T09:57:37.976Z,13.54
2023-04-15T09:58:41.706Z,13.28
2023-04-15T09:59:44.014Z,13.16
2023-04-15T10:00:48.706Z,13.11
2023-04-15T10:01:51.219Z,13.34
2023-04-15T10:02:53.400Z,13.26
2023-04-15T10:03:57.408Z,13.37
2023-04-15T10:05:00.494Z,13.11
2023-04-15T10:06:03.706Z,13.45
2023-04-15T10:07:06.450Z,13.11
2023-04-15T10:08:09.278Z,13.20
2023-04-15T10:09:11.624Z,13.10
2023-04-15T10:10:14.825Z,12.97
2023-04-15T10:11:20.013Z,12.80
2023-04-15T10:12:23.228Z,12.63
2023-04-15T10:13:27.189Z,12.58
2023-04-15T10:14:34.220Z,12.41
2023-04-15T10:15:36.661Z,12.63
2023-04-15T10:16:43.085Z,12.82
2023-04-15T10:17:45.829Z,12.64
2023-04-15T10:18:51.569Z,12.48
2023-04-15T10:19:55.081Z,12.56
2023-04-15T10:20:57.220Z,12.99
2023-04-15T10:21:59.965Z,12.85
2023-04-15T10:23:02.496Z,12.76
2023-04-15T10:24:06.218Z,13.06
2023-04-15T10:25:09.734Z,13.14
2023-04-15T10:26:14.805Z,13.11
2023-04-15T10:27:18.779Z,13.38
2023-04-15T10:28:24.948Z,13.35
2023-04-15T10:29:27.345Z,13.56
2023-04-15T10:30:29.307Z,13.32
2023-04-15T10:31:31.874Z,13.51
2023-04-15T10:32:34.447Z,13.50
2023-04-15T10:33:38.850Z,13.72
2023-04-15T10:34:41.524Z,13.93
2023-04-15T10:35:44.284Z,13.91
2023-04-15T10:36:47.337Z,13.77
2023-04-15T10:37:49.333Z,13.71
2023-04-15T10:38:51.593Z,13.44
2023-04-15T10:39:53.513Z,13.07
2023-04-15T10:41:31.390Z,13.09
2023-04-15T10:42:36.479Z,12.91
2023-04-15T10:43:38.366Z,13.00
2023-04-15T10:44:44.461Z,12.85
2023-04-15T10:45:48.792Z,12.87
2023-04-15T10:46:52.548Z,13.09
2023-04-15T10:47:59.615Z,12.88
2023-04-15T10:49:17.386Z,12.88
2023-04-15T10:50:19.732Z,12.64
2023-04-15T10:51:32.133Z,12.80
2023-04-15T10:52:34.029Z,12.72
2023-04-15T10:53:37.962Z,12.78
2023-04-15T10:54:39.903Z,12.58
2023-04-15T10:55:42.139Z,12.66
2023-04-15T10:56:45.760Z,12.52
2023-04-15T10:57:52.235Z,12.77
2023-04-15T10:58:54.137Z,12.69
2023-04-15T11:00:00.388Z,12.49
2023-04-15T11:01:03.516Z,12.64
2023-04-15T11:02:07.425Z,12.44
2023-04-15T11:03:10.001Z,12.32
2023-04-15T11:04:12.452Z,12.36
2023-04-15T11:05:16.372Z,12.43
2023-04-15T11:06:18.559Z,12.38
2023-04-15T11:07:52.967Z,12.44
2023-04-15T11:09:02.563Z,12.25
2023-04-15T11:10:30.115Z,12.51
2023-04-15T11:12:09.923Z,12.89
2023-04-15T11:13:11.812Z,12.83
2023-04-15T11:14:16.834Z,12.46
2023-04-15T11:15:27.844Z,12.49
2023-04-15T11:16:29.781Z,12.59
2023-04-15T11:17:32.054Z,12.15
2023-04-15T11:18:34.719Z,12.43
2023-04-15T11:19:40.313Z,12.69
2023-04-15T11:20:48.122Z,12.64
2023-04-15T11:21:50.029Z,12.48
2023-04-15T11:23:08.175Z,12.74
2023-04-15T11:24:28.008Z,12.75
2023-04-15T11:25:34.839Z,13.02
2023-04-15T11:26:37.551Z,12.94
2023-04-15T11:27:39.490Z,13.08
2023-04-15T11:28:45.137Z,13.13
2023-04-15T11:29:47.112Z,13.07
2023-04-15T11:30:49.524Z,13.08
2023-04-15T11:31:51.609Z,13.21
2023-04-15T11:32:55.942Z,12.84
2023-04-15T11:34:01.667Z,12.83
2023-04-15T11:35:03.676Z,12.74
2023-04-15T11:36:05.803Z,13.35
2023-04-15T11:37:08.059Z,13.68
2023-04-15T11:38:14.448Z,13.43
2023-04-15T11:39:16.781Z,13.19
2023-04-15T11:40:29.671Z,13.44
2023-04-15T11:41:31.672Z,13.21
2023-04-15T11:42:46.515Z,13.14
2023-04-15T11:43:51.977Z,13.41
2023-04-15T11:45:11.786Z,13.74
2023-04-15T11:46:13.733Z,13.43
2023-04-15T11:47:25.205Z,13.51
2023-04-15T11:48:29.745Z,13.40
2023-04-15T11:49:33.950Z,13.61
2023-04-15T11:50:37.473Z,13.51
2023-04-15T11:51:39.371Z,13.18
2023-04-15T11:52:41.502Z,13.16
2023-04-15T11:53:44.324Z,13.12
2023-04-15T11:54:46.221Z,13.02
2023-04-15T11:55:51.005Z,13.26
2023-04-15T11:56:54.615Z,13.30
2023-04-15T11:58:18.825Z,13.17
2023-04-15T11:59:20.745Z,13.04
2023-04-15T12:00:23.309Z,13.02
2023-04-15T12:01:36.525Z,12.89
2023-04-15T12:02:39.450Z,13.15
2023-04-15T12:03:44.013Z,12.70
2023-04-15T12:04:46.301Z,12.86
2023-04-15T12:06:13.377Z,12.75
2023-04-15T12:07:15.495Z,12.62
2023-04-15T12:08:17.351Z,12.62
2023-04-15T12:09:20.385Z,12.48
2023-04-15T12:10:24.892Z,12.59
2023-04-15T12:11:26.667Z,12.75
2023-04-15T12:12:29.100Z,12.64
2023-04-15T12:13:30.944Z,12.84
2023-04-15T12:14:33.785Z,13.14
2023-04-15T12:15:39.318Z,13.08
2023-04-15T12:16:49.559Z,13.23
2023-04-15T12:17:55.092Z,13.17
2023-04-15T12:19:01.603Z,12.60
2023-04-15T12:20:04.418Z,12.54
2023-04-15T12:21:12.409Z,12.94
2023-04-15T12:22:16.961Z,12.68
2023-04-15T12:23:21.763Z,12.43
2023-04-15T12:24:23.756Z,12.41
2023-04-15T12:25:35.628Z,12.43
2023-04-15T12:26:43.632Z,12.36
2023-04-15T12:27:52.010Z,12.36
2023-04-15T12:29:01.523Z,12.71
2023-04-15T12:30:05.324Z,12.83
2023-04-15T12:31:08.905Z,12.68
2023-04-15T12:32:12.088Z,12.73
2023-04-15T12:33:14.130Z,12.73
2023-04-15T12:34:16.867Z,12.64
2023-04-15T12:35:21.542Z,12.94
2023-04-15T12:36:24.049Z,13.11
2023-04-15T12:37:26.245Z,12.99
2023-04-15T12:38:28.130Z,12.89
2023-04-15T12:39:32.596Z,12.88
2023-04-15T12:40:34.566Z,13.09
2023-04-15T12:41:36.407Z,12.75
2023-04-15T12:42:38.300Z,12.90
2023-04-15T12:43:40.170Z,13.40
2023-04-15T12:44:42.423Z,14.06
2023-04-15T12:45:44.291Z,13.76
2023-04-15T12:46:46.887Z,13.37
2023-04-15T12:47:48.843Z,13.37
2023-04-15T12:48:51.374Z,13.30
2023-04-15T12:49:53.752Z,13.42
2023-04-15T12:50:55.644Z,13.08
2023-04-15T12:52:00.199Z,12.49
2023-04-15T12:53:03.633Z,12.14
2023-04-15T12:54:05.796Z,12.57
2023-04-15T12:55:08.520Z,12.47
2023-04-15T12:56:10.700Z,12.64
2023-04-15T12:57:12.559Z,12.64
2023-04-15T12:58:14.447Z,12.54
2023-04-15T12:59:18.521Z,12.61
2023-04-15T13:00:21.004Z,12.40
2023-04-15T13:01:23.180Z,12.46
2023-04-15T13:02:27.143Z,12.37
2023-04-15T13:03:29.194Z,12.19
2023-04-15T13:04:31.692Z,12.25
2023-04-15T13:05:34.100Z,12.29
2023-04-15T13:06:36.869Z,12.40
2023-04-15T13:07:39.069Z,12.98
2023-04-15T13:08:48.005Z,13.38
2023-04-15T13:09:57.209Z,13.50
2023-04-15T13:10:59.359Z,13.19
2023-04-15T13:12:01.373Z,12.52
2023-04-15T13:13:03.663Z,12.45
2023-04-15T13:14:08.605Z,12.54
2023-04-15T13:15:11.602Z,12.50
2023-04-15T13:16:13.854Z,12.65
2023-04-15T13:17:17.523Z,12.61
2023-04-15T13:18:19.527Z,12.57
2023-04-15T13:19:21.390Z,12.50
2023-04-15T13:20:23.406Z,12.51
2023-04-15T13:21:25.693Z,12.84
2023-04-15T13:22:27.562Z,12.87
2023-04-15T13:23:29.436Z,12.78
2023-04-15T13:24:31.890Z,12.77
2023-04-15T13:25:33.726Z,12.85
2023-04-15T13:26:36.286Z,13.12
2023-04-15T13:27:39.014Z,13.23
2023-04-15T13:28:40.938Z,13.27
2023-04-15T13:29:42.952Z,13.37
2023-04-15T13:30:45.807Z,13.23
2023-04-15T13:31:47.992Z,13.19
2023-04-15T13:32:51.271Z,13.21
2023-04-15T13:33:53.306Z,12.83
2023-04-15T13:34:56.267Z,12.68
2023-04-15T13:35:58.277Z,12.56
2023-04-15T13:37:06.936Z,12.65
2023-04-15T13:38:08.803Z,12.56
2023-04-15T13:39:10.696Z,12.69
2023-04-15T13:40:12.583Z,12.84
2023-04-15T13:41:14.446Z,13.04
2023-04-15T13:42:16.774Z,13.30
2023-04-15T13:43:18.749Z,13.15
2023-04-15T13:44:22.205Z,13.00
2023-04-15T13:45:24.508Z,13.20
2023-04-15T13:46:26.555Z,13.36
2023-04-15T13:47:29.015Z,12.95
2023-04-15T13:48:31.124Z,13.01
2023-04-15T13:49:33.105Z,12.78